createdAt,value
2018-06-17T00:00:08.988Z,16.70
2018-06-17T00:01:09.183Z,16.68
2018-06-17T00:02:09.371Z,16.75
2018-06-17T00:03:09.605Z,16.76
2018-06-17T00:04:09.805Z,16.71
2018-06-17T00:05:09.995Z,16.71
2018-06-17T00:06:10.204Z,16.78
2018-06-17T00:07:10.420Z,16.73
2018-06-17T00:08:10.636Z,16.73
2018-06-17T00:09:10.824Z,16.79
2018-06-17T00:10:11.034Z,16.70
2018-06-17T00:11:11.245Z,16.71
2018-06-17T00:12:11.460Z,16.78
2018-06-17T00:13:11.653Z,16.88
2018-06-17T00:14:11.858Z,16.73
2018-06-17T00:15:12.041Z,16.93
2018-06-17T00:16:12.235Z,16.79
2018-06-17T00:17:12.448Z,16.83
2018-06-17T00:18:12.640Z,16.89
2018-06-17T00:19:12.841Z,16.96
2018-06-17T00:20:13.035Z,16.89
2018-06-17T00:21:13.241Z,16.93
2018-06-17T00:22:13.425Z,16.93
2018-06-17T00:23:13.650Z,16.97
2018-06-17T00:24:13.850Z,16.96
2018-06-17T00:25:14.076Z,17.00
2018-06-17T00:26:14.290Z,17.00
2018-06-17T00:27:14.507Z,17.01
2018-06-17T00:28:14.710Z,17.04
2018-06-17T00:29:14.916Z,17.06
2018-06-17T00:30:15.106Z,16.97
2018-06-17T00:31:15.307Z,16.93
2018-06-17T00:32:15.504Z,16.93
2018-06-17T00:33:15.702Z,16.98
2018-06-17T00:34:15.894Z,16.96
2018-06-17T00:35:16.105Z,16.98
2018-06-17T00:36:16.294Z,16.98
2018-06-17T00:37:16.494Z,16.97
2018-06-17T00:38:16.703Z,16.89
2018-06-17T00:39:16.891Z,16.89
2018-06-17T00:40:17.108Z,16.88
2018-06-17T00:41:17.298Z,16.91
2018-06-17T00:42:17.487Z,16.79
2018-06-17T00:43:17.715Z,16.81
2018-06-17T00:44:17.926Z,16.83
2018-06-17T00:45:18.138Z,16.79
2018-06-17T00:46:18.326Z,16.81
2018-06-17T00:47:18.624Z,16.70
2018-06-17T00:48:18.772Z,16.78
2018-06-17T00:49:18.975Z,16.70
2018-06-17T00:50:19.176Z,16.73
2018-06-17T00:51:19.386Z,16.75
2018-06-17T00:52:19.599Z,16.68
2018-06-17T00:53:19.784Z,16.71
2018-06-17T00:54:19.995Z,16.82
2018-06-17T00:55:20.174Z,16.71
2018-06-17T00:56:20.381Z,16.71
2018-06-17T00:57:20.572Z,16.78
2018-06-17T00:58:20.768Z,16.68
2018-06-17T01:00:53.090Z,16.67
2018-06-17T01:01:53.265Z,16.68
2018-06-17T01:02:53.467Z,16.58
2018-06-17T01:03:53.659Z,16.58
2018-06-17T01:04:53.841Z,16.58
2018-06-17T01:05:54.042Z,16.63
2018-06-17T01:06:54.224Z,16.52
2018-06-17T01:07:54.411Z,16.57
2018-06-17T01:08:54.627Z,16.53
2018-06-17T01:09:54.837Z,16.60
2018-06-17T01:10:55.014Z,16.53
2018-06-17T01:11:55.209Z,16.58
2018-06-17T01:12:55.405Z,16.48
2018-06-17T01:13:55.591Z,16.42
2018-06-17T01:14:55.805Z,16.56
2018-06-17T01:15:56.105Z,16.49
2018-06-17T01:16:56.156Z,16.39
2018-06-17T01:17:56.347Z,16.41
2018-06-17T01:18:56.583Z,16.48
2018-06-17T01:19:56.739Z,16.49
2018-06-17T01:20:56.939Z,16.50
2018-06-17T01:21:57.141Z,16.42
2018-06-17T01:22:57.366Z,16.48
2018-06-17T01:23:57.558Z,16.46
2018-06-17T01:24:57.747Z,16.56
2018-06-17T01:25:57.972Z,16.50
2018-06-17T01:26:58.171Z,16.49
2018-06-17T01:27:58.354Z,16.45
2018-06-17T01:28:58.548Z,16.49
2018-06-17T01:29:58.725Z,16.52
2018-06-17T01:30:58.926Z,16.52
2018-06-17T01:31:59.141Z,16.50
2018-06-17T01:32:59.336Z,16.42
2018-06-17T01:33:59.520Z,16.39
2018-06-17T01:34:59.732Z,16.27
2018-06-17T01:35:59.923Z,16.34
2018-06-17T01:37:00.176Z,16.28
2018-06-17T01:38:00.373Z,16.24
2018-06-17T01:39:00.597Z,16.33
2018-06-17T01:40:00.774Z,16.31
2018-06-17T01:41:00.989Z,16.30
2018-06-17T01:42:01.191Z,16.20
2018-06-17T01:43:01.405Z,16.23
2018-06-17T01:44:01.636Z,16.27
2018-06-17T01:45:01.834Z,16.25
2018-06-17T01:46:02.020Z,16.20
2018-06-17T01:47:02.230Z,16.02
2018-06-17T01:48:02.417Z,15.93
2018-06-17T01:49:02.622Z,15.92
2018-06-17T01:50:02.854Z,15.93
2018-06-17T01:51:03.042Z,15.97
2018-06-17T01:52:03.232Z,15.94
2018-06-17T01:53:03.442Z,16.00
2018-06-17T01:54:03.655Z,15.87
2018-06-17T01:55:03.854Z,15.86
2018-06-17T01:56:04.064Z,15.97
2018-06-17T01:57:04.274Z,15.94
2018-06-17T01:58:04.473Z,16.01
2018-06-17T01:59:04.685Z,15.93
2018-06-17T02:00:04.890Z,15.96
2018-06-17T02:01:05.089Z,15.96
2018-06-17T02:02:05.265Z,15.93
2018-06-17T02:03:05.473Z,15.96
2018-06-17T02:04:05.676Z,15.96
2018-06-17T02:05:05.889Z,16.02
2018-06-17T02:06:06.074Z,15.94
2018-06-17T02:07:06.286Z,15.93
2018-06-17T02:08:06.479Z,15.93
2018-06-17T02:09:06.679Z,16.00
2018-06-17T02:10:06.875Z,15.94
2018-06-17T02:11:07.066Z,15.97
2018-06-17T02:12:07.276Z,15.94
2018-06-17T02:13:07.475Z,15.96
2018-06-17T02:14:07.669Z,15.97
2018-06-17T02:15:07.864Z,16.00
2018-06-17T02:16:08.054Z,15.90
2018-06-17T02:17:08.237Z,15.96
2018-06-17T02:18:08.424Z,15.94
2018-06-17T02:19:08.633Z,16.01
2018-06-17T02:20:08.838Z,16.00
2018-06-17T02:21:09.027Z,15.96
2018-06-17T02:22:09.225Z,16.02
2018-06-17T02:23:09.431Z,16.05
2018-06-17T02:24:09.635Z,16.11
2018-06-17T02:25:09.993Z,16.09
2018-06-17T02:26:10.064Z,16.20
2018-06-17T02:27:10.286Z,16.09
2018-06-17T02:28:10.499Z,16.20
2018-06-17T02:29:10.686Z,16.09
2018-06-17T02:30:10.896Z,16.07
2018-06-17T02:31:11.098Z,15.96
2018-06-17T02:32:11.292Z,16.08
2018-06-17T02:33:11.482Z,16.09
2018-06-17T02:34:11.680Z,15.97
2018-06-17T02:35:11.885Z,16.05
2018-06-17T02:36:12.208Z,15.97
2018-06-17T02:37:12.287Z,15.93
2018-06-17T02:38:12.469Z,15.84
2018-06-17T02:39:12.654Z,15.74
2018-06-17T02:40:12.847Z,15.75
2018-06-17T02:41:13.033Z,15.75
2018-06-17T02:42:13.223Z,15.64
2018-06-17T02:43:13.415Z,15.62
2018-06-17T02:44:13.631Z,15.68
2018-06-17T02:45:13.813Z,15.60
2018-06-17T02:46:14.087Z,15.54
2018-06-17T02:47:14.152Z,15.60
2018-06-17T02:48:14.360Z,15.51
2018-06-17T02:49:14.571Z,15.56
2018-06-17T02:50:14.794Z,15.68
2018-06-17T02:51:15.001Z,15.60
2018-06-17T02:52:15.213Z,15.75
2018-06-17T02:53:15.417Z,15.71
2018-06-17T02:54:15.625Z,15.75
2018-06-17T02:55:15.821Z,15.75
2018-06-17T02:56:16.023Z,15.75
2018-06-17T02:57:16.274Z,15.72
2018-06-17T02:58:16.483Z,15.71
2018-06-17T02:59:16.679Z,15.74
2018-06-17T03:00:16.877Z,15.64
2018-06-17T03:01:17.065Z,15.53
2018-06-17T03:02:17.259Z,15.68
2018-06-17T03:03:17.456Z,15.64
2018-06-17T03:04:17.687Z,15.69
2018-06-17T03:05:17.867Z,15.60
2018-06-17T03:06:18.074Z,15.71
2018-06-17T03:07:18.262Z,15.62
2018-06-17T03:08:18.470Z,15.69
2018-06-17T03:09:18.670Z,15.64
2018-06-17T03:10:18.856Z,15.67
2018-06-17T03:11:19.057Z,15.53
2018-06-17T03:12:19.286Z,15.59
2018-06-17T03:13:19.492Z,15.59
2018-06-17T03:14:19.682Z,15.53
2018-06-17T03:15:19.879Z,15.53
2018-06-17T03:16:20.056Z,15.56
2018-06-17T03:17:20.242Z,15.56
2018-06-17T03:18:20.449Z,15.44
2018-06-17T03:19:20.667Z,15.41
2018-06-17T03:20:20.857Z,15.35
2018-06-17T03:21:21.057Z,15.38
2018-06-17T03:22:21.262Z,15.38
2018-06-17T03:23:21.443Z,15.43
2018-06-17T03:24:21.639Z,15.53
2018-06-17T03:25:21.832Z,15.57
2018-06-17T03:26:22.087Z,15.56
2018-06-17T03:27:22.142Z,15.49
2018-06-17T03:28:22.356Z,15.71
2018-06-17T03:29:22.541Z,15.72
2018-06-17T03:30:22.747Z,15.76
2018-06-17T03:31:22.956Z,15.83
2018-06-17T03:32:23.146Z,15.76
2018-06-17T03:33:23.363Z,15.87
2018-06-17T03:34:23.566Z,15.93
2018-06-17T03:35:23.754Z,15.82
2018-06-17T03:36:23.964Z,15.94
2018-06-17T03:37:24.144Z,15.97
2018-06-17T03:38:24.330Z,16.07
2018-06-17T03:39:24.537Z,16.08
2018-06-17T03:40:24.726Z,16.07
2018-06-17T03:41:24.930Z,16.08
2018-06-17T03:42:25.116Z,16.05
2018-06-17T03:43:25.302Z,16.09
2018-06-17T03:44:25.515Z,16.21
2018-06-17T03:45:25.718Z,16.30
2018-06-17T03:46:25.920Z,16.25
2018-06-17T03:47:26.097Z,16.21
2018-06-17T03:48:26.308Z,16.38
2018-06-17T03:49:26.583Z,16.25
2018-06-17T03:50:26.651Z,16.30
2018-06-17T03:51:26.883Z,16.23
2018-06-17T03:52:27.069Z,16.02
2018-06-17T03:53:27.266Z,15.94
2018-06-17T03:54:27.462Z,16.04
2018-06-17T03:56:59.856Z,16.04
2018-06-17T03:57:59.774Z,16.00
2018-06-17T03:58:59.969Z,16.04
2018-06-17T04:00:00.151Z,16.07
2018-06-17T04:01:00.346Z,16.11
2018-06-17T04:02:00.546Z,16.17
2018-06-17T04:03:00.739Z,16.08
2018-06-17T04:04:00.958Z,16.14
2018-06-17T04:05:01.145Z,16.02
2018-06-17T04:06:01.350Z,16.17
2018-06-17T04:07:01.554Z,16.23
2018-06-17T04:08:01.859Z,16.08
2018-06-17T04:09:01.950Z,16.21
2018-06-17T04:10:02.130Z,16.27
2018-06-17T04:11:02.360Z,16.20
2018-06-17T04:12:02.568Z,16.12
2018-06-17T04:13:02.765Z,16.23
2018-06-17T04:14:02.977Z,16.08
2018-06-17T04:15:03.172Z,16.24
2018-06-17T04:16:03.427Z,16.15
2018-06-17T04:17:03.559Z,16.24
2018-06-17T04:18:03.746Z,16.24
2018-06-17T04:19:03.937Z,16.33
2018-06-17T04:20:04.151Z,16.23
2018-06-17T04:21:04.335Z,16.42
2018-06-17T04:22:04.535Z,16.39
2018-06-17T04:23:04.748Z,16.52
2018-06-17T04:24:04.957Z,16.52
2018-06-17T04:25:05.147Z,16.70
2018-06-17T04:26:05.365Z,16.63
2018-06-17T04:27:05.551Z,16.63
2018-06-17T04:28:05.741Z,16.66
2018-06-17T04:29:05.933Z,16.66
2018-06-17T04:30:06.137Z,16.68
2018-06-17T04:31:06.321Z,16.68
2018-06-17T04:32:06.512Z,16.76
2018-06-17T04:33:06.721Z,16.83
2018-06-17T04:34:06.907Z,16.91
2018-06-17T04:35:07.106Z,16.93
2018-06-17T04:36:07.307Z,16.91
2018-06-17T04:37:07.506Z,17.04
2018-06-17T04:38:07.726Z,16.98
2018-06-17T04:39:07.927Z,17.06
2018-06-17T04:40:08.140Z,17.14
2018-06-17T04:41:08.348Z,17.08
2018-06-17T04:42:08.548Z,17.15
2018-06-17T04:43:08.765Z,17.06
2018-06-17T04:44:08.961Z,17.12
2018-06-17T04:45:09.140Z,17.22
2018-06-17T04:46:09.352Z,17.28
2018-06-17T04:47:09.565Z,17.34
2018-06-17T04:48:10.377Z,17.25
2018-06-17T04:49:09.898Z,17.26
2018-06-17T04:50:10.107Z,17.30
2018-06-17T04:52:42.221Z,17.37
2018-06-17T04:53:42.402Z,17.43
2018-06-17T04:54:42.590Z,17.41
2018-06-17T04:55:42.775Z,17.54
2018-06-17T04:56:42.975Z,17.63
2018-06-17T04:57:43.188Z,17.52
2018-06-17T04:58:43.380Z,17.54
2018-06-17T04:59:43.583Z,17.54
2018-06-17T05:00:43.771Z,17.49
2018-06-17T05:01:43.971Z,17.44
2018-06-17T05:02:44.162Z,17.51
2018-06-17T05:03:44.368Z,17.62
2018-06-17T05:04:44.571Z,17.63
2018-06-17T05:05:44.777Z,17.63
2018-06-17T05:06:44.972Z,17.58
2018-06-17T05:07:45.165Z,17.74
2018-06-17T05:08:45.358Z,17.78
2018-06-17T05:09:45.547Z,17.70
2018-06-17T05:10:45.757Z,17.82
2018-06-17T05:11:45.945Z,17.84
2018-06-17T05:12:46.140Z,17.82
2018-06-17T05:13:46.346Z,17.82
2018-06-17T05:14:46.546Z,17.68
2018-06-17T05:15:46.755Z,17.79
2018-06-17T05:16:46.952Z,17.89
2018-06-17T05:17:47.152Z,17.99
2018-06-17T05:18:47.355Z,18.21
2018-06-17T05:19:47.561Z,18.18
2018-06-17T05:20:47.753Z,18.29
2018-06-17T05:21:47.945Z,18.41
2018-06-17T05:22:48.139Z,18.47
2018-06-17T05:23:48.330Z,18.65
2018-06-17T05:24:48.530Z,18.70
2018-06-17T05:25:48.727Z,18.80
2018-06-17T05:26:48.945Z,19.08
2018-06-17T05:27:49.142Z,19.07
2018-06-17T05:28:49.331Z,19.26
2018-06-17T05:29:49.521Z,19.44
2018-06-17T05:30:49.730Z,19.55
2018-06-17T05:31:49.909Z,19.63
2018-06-17T05:32:50.187Z,19.63
2018-06-17T05:33:50.324Z,19.61
2018-06-17T05:34:50.481Z,19.66
2018-06-17T05:35:50.687Z,19.80
2018-06-17T05:36:50.898Z,19.56
2018-06-17T05:37:51.094Z,19.32
2018-06-17T05:38:51.282Z,19.43
2018-06-17T05:39:51.495Z,19.14
2018-06-17T05:40:51.694Z,18.81
2018-06-17T05:41:51.895Z,18.90
2018-06-17T05:42:52.104Z,18.95
2018-06-17T05:43:52.351Z,18.95
2018-06-17T05:44:52.561Z,18.87
2018-06-17T05:45:52.761Z,18.94
2018-06-17T05:46:52.964Z,19.02
2018-06-17T05:47:53.163Z,19.04
2018-06-17T05:48:53.374Z,18.88
2018-06-17T05:49:53.575Z,19.16
2018-06-17T05:52:25.670Z,19.48
2018-06-17T05:53:25.852Z,19.31
2018-06-17T05:54:26.047Z,19.44
2018-06-17T05:55:26.246Z,19.51
2018-06-17T05:56:26.433Z,19.71
2018-06-17T05:57:26.652Z,19.84
2018-06-17T05:58:26.831Z,19.91
2018-06-17T05:59:27.046Z,20.05
2018-06-17T06:00:27.234Z,20.13
2018-06-17T06:01:27.447Z,20.02
2018-06-17T06:02:27.627Z,20.05
2018-06-17T06:03:27.818Z,20.28
2018-06-17T06:04:28.021Z,20.28
2018-06-17T06:05:28.234Z,20.20
2018-06-17T06:06:28.417Z,20.26
2018-06-17T06:07:28.604Z,20.29
2018-06-17T06:08:28.817Z,20.26
2018-06-17T06:09:29.034Z,20.21
2018-06-17T06:10:29.248Z,20.18
2018-06-17T06:11:29.462Z,20.21
2018-06-17T06:12:29.648Z,20.36
2018-06-17T06:13:29.837Z,20.61
2018-06-17T06:14:30.050Z,20.61
2018-06-17T06:15:30.235Z,20.59
2018-06-17T06:16:30.436Z,20.66
2018-06-17T06:17:30.642Z,20.97
2018-06-17T06:18:30.836Z,20.76
2018-06-17T06:19:31.044Z,21.21
2018-06-17T06:20:31.214Z,21.16
2018-06-17T06:21:31.404Z,21.09
2018-06-17T06:22:31.624Z,21.35
2018-06-17T06:23:31.813Z,21.52
2018-06-17T06:24:32.024Z,21.79
2018-06-17T06:25:32.223Z,21.61
2018-06-17T06:26:32.424Z,21.40
2018-06-17T06:27:32.639Z,21.37
2018-06-17T06:28:32.844Z,22.05
2018-06-17T06:29:33.025Z,22.98
2018-06-17T06:30:33.240Z,22.86
2018-06-17T06:31:33.445Z,23.90
2018-06-17T06:32:33.701Z,24.18
2018-06-17T06:33:33.841Z,25.15
2018-06-17T06:34:34.050Z,25.72
2018-06-17T06:35:34.246Z,25.88
2018-06-17T06:36:34.457Z,26.40
2018-06-17T06:37:34.656Z,26.40
2018-06-17T06:38:34.844Z,26.66
2018-06-17T06:39:35.053Z,26.52
2018-06-17T06:40:35.258Z,26.29
2018-06-17T06:41:35.450Z,26.73
2018-06-17T06:42:35.648Z,26.52
2018-06-17T06:43:35.842Z,27.14
2018-06-17T06:44:36.053Z,27.19
2018-06-17T06:45:36.318Z,27.55
2018-06-17T06:46:36.496Z,27.74
2018-06-17T06:47:36.707Z,27.94
2018-06-17T06:48:36.912Z,27.04
2018-06-17T06:49:37.102Z,27.07
2018-06-17T06:50:37.295Z,27.19
2018-06-17T06:51:37.514Z,27.40
2018-06-17T06:52:37.735Z,26.73
2018-06-17T06:53:37.937Z,25.42
2018-06-17T06:54:38.129Z,26.47
2018-06-17T06:57:10.245Z,26.36
2018-06-17T06:58:10.470Z,27.27
2018-06-17T06:59:10.681Z,27.90
2018-06-17T07:00:10.873Z,28.09
2018-06-17T07:01:11.067Z,28.33
2018-06-17T07:02:11.274Z,28.12
2018-06-17T07:03:11.468Z,28.52
2018-06-17T07:04:11.672Z,28.55
2018-06-17T07:05:11.883Z,27.92
2018-06-17T07:06:12.074Z,28.71
2018-06-17T07:07:12.294Z,28.44
2018-06-17T07:08:12.484Z,27.88
2018-06-17T07:09:12.704Z,27.79
2018-06-17T07:10:12.910Z,27.24
2018-06-17T07:11:13.114Z,27.90
2018-06-17T07:12:13.321Z,27.92
2018-06-17T07:13:13.533Z,26.55
2018-06-17T07:14:13.758Z,26.09
2018-06-17T07:15:13.975Z,26.92
2018-06-17T07:16:14.196Z,26.88
2018-06-17T07:17:14.394Z,27.43
2018-06-17T07:18:14.595Z,27.44
2018-06-17T07:19:14.816Z,27.14
2018-06-17T07:20:15.015Z,27.90
2018-06-17T07:21:15.207Z,27.94
2018-06-17T07:22:15.423Z,28.31
2018-06-17T07:23:15.626Z,28.62
2018-06-17T07:24:15.967Z,28.81
2018-06-17T07:25:16.066Z,29.27
2018-06-17T07:26:16.296Z,29.90
2018-06-17T07:27:16.504Z,28.54
2018-06-17T07:28:16.707Z,28.06
2018-06-17T07:29:16.968Z,28.25
2018-06-17T07:30:17.170Z,29.30
2018-06-17T07:31:17.386Z,29.16
2018-06-17T07:32:17.581Z,29.28
2018-06-17T07:33:17.800Z,29.08
2018-06-17T07:34:18.020Z,28.78
2018-06-17T07:35:18.231Z,28.49
2018-06-17T07:36:18.450Z,27.88
2018-06-17T07:37:18.669Z,27.79
2018-06-17T07:38:18.861Z,28.02
2018-06-17T07:39:19.064Z,28.62
2018-06-17T07:40:19.279Z,28.37
2018-06-17T07:41:19.477Z,28.78
2018-06-17T07:42:19.695Z,28.96
2018-06-17T07:43:19.902Z,28.37
2018-06-17T07:44:20.134Z,27.90
2018-06-17T07:45:20.329Z,28.24
2018-06-17T07:46:20.547Z,28.39
2018-06-17T07:47:20.773Z,29.19
2018-06-17T07:48:20.969Z,29.21
2018-06-17T07:49:21.203Z,29.52
2018-06-17T07:50:21.357Z,29.37
2018-06-17T07:51:21.578Z,28.64
2018-06-17T07:52:21.796Z,28.46
2018-06-17T07:53:22.001Z,28.55
2018-06-17T07:54:22.309Z,28.93
2018-06-17T07:55:22.393Z,28.81
2018-06-17T07:56:22.626Z,28.78
2018-06-17T07:57:22.844Z,28.93
2018-06-17T07:58:23.051Z,29.68
2018-06-17T07:59:23.257Z,29.12
2018-06-17T08:00:23.470Z,29.27
2018-06-17T08:01:23.685Z,28.85
2018-06-17T08:02:23.900Z,28.33
2018-06-17T08:03:24.108Z,28.46
2018-06-17T08:04:24.319Z,28.52
2018-06-17T08:05:24.534Z,27.75
2018-06-17T08:06:24.745Z,27.75
2018-06-17T08:08:56.589Z,28.02
2018-06-17T08:09:56.775Z,28.33
2018-06-17T08:10:57.053Z,28.88
2018-06-17T08:11:57.232Z,29.18
2018-06-17T08:12:57.423Z,29.31
2018-06-17T08:13:57.635Z,29.33
2018-06-17T08:14:57.855Z,29.57
2018-06-17T08:15:58.065Z,29.58
2018-06-17T08:16:58.290Z,28.76
2018-06-17T08:17:58.503Z,28.77
2018-06-17T08:18:58.721Z,28.62
2018-06-17T08:19:58.931Z,28.22
2018-06-17T08:20:59.156Z,28.51
2018-06-17T08:21:59.374Z,28.62
2018-06-17T08:22:59.576Z,28.15
2018-06-17T08:23:59.781Z,26.97
2018-06-17T08:25:00.010Z,25.99
2018-06-17T08:26:00.252Z,25.60
2018-06-17T08:27:00.444Z,25.36
2018-06-17T08:28:00.652Z,27.13
2018-06-17T08:29:00.848Z,26.01
2018-06-17T08:30:01.049Z,25.15
2018-06-17T08:31:01.264Z,24.88
2018-06-17T08:32:01.464Z,24.37
2018-06-17T08:33:01.660Z,25.08
2018-06-17T08:34:01.862Z,26.55
2018-06-17T08:35:02.080Z,26.43
2018-06-17T08:36:02.272Z,25.87
2018-06-17T08:37:02.475Z,26.07
2018-06-17T08:38:02.664Z,26.26
2018-06-17T08:39:02.891Z,25.97
2018-06-17T08:40:03.119Z,26.07
2018-06-17T08:41:03.324Z,25.83
2018-06-17T08:42:03.544Z,25.05
2018-06-17T08:43:03.764Z,26.26
2018-06-17T08:44:03.974Z,26.17
2018-06-17T08:45:04.189Z,25.54
2018-06-17T08:46:04.400Z,25.08
2018-06-17T08:47:04.603Z,25.32
2018-06-17T08:48:04.811Z,25.38
2018-06-17T08:49:05.013Z,24.90
2018-06-17T08:50:05.221Z,24.40
2018-06-17T08:51:05.444Z,24.40
2018-06-17T08:52:05.638Z,24.10
2018-06-17T08:53:05.841Z,24.03
2018-06-17T08:54:06.069Z,24.06
2018-06-17T08:55:06.263Z,23.54
2018-06-17T08:56:06.480Z,23.22
2018-06-17T08:57:06.694Z,22.92
2018-06-17T08:58:06.901Z,23.09
2018-06-17T08:59:07.094Z,22.77
2018-06-17T09:00:07.313Z,22.76
2018-06-17T09:01:07.504Z,22.54
2018-06-17T09:02:07.696Z,22.43
2018-06-17T09:03:07.895Z,22.49
2018-06-17T09:04:08.092Z,22.15
2018-06-17T09:06:40.221Z,22.21
2018-06-17T09:07:40.403Z,22.22
2018-06-17T09:08:40.624Z,22.00
2018-06-17T09:09:40.819Z,22.06
2018-06-17T09:10:41.019Z,22.07
2018-06-17T09:11:41.244Z,22.02
2018-06-17T09:12:41.441Z,22.06
2018-06-17T09:13:41.651Z,22.27
2018-06-17T09:14:41.872Z,24.15
2018-06-17T09:15:42.063Z,25.55
2018-06-17T09:16:42.305Z,26.29
2018-06-17T09:17:42.512Z,26.84
2018-06-17T09:18:42.705Z,27.90
2018-06-17T09:19:42.900Z,27.82
2018-06-17T09:20:43.103Z,25.99
2018-06-17T09:21:43.330Z,25.82
2018-06-17T09:22:43.554Z,25.61
2018-06-17T09:23:43.770Z,25.28
2018-06-17T09:24:43.986Z,25.20
2018-06-17T09:25:44.194Z,25.57
2018-06-17T09:26:44.416Z,25.06
2018-06-17T09:27:44.617Z,24.55
2018-06-17T09:28:44.816Z,24.08
2018-06-17T09:29:45.032Z,23.94
2018-06-17T09:30:45.234Z,23.53
2018-06-17T09:31:45.501Z,23.02
2018-06-17T09:32:45.663Z,23.01
2018-06-17T09:33:45.884Z,23.04
2018-06-17T09:34:46.073Z,22.92
2018-06-17T09:35:46.280Z,22.91
2018-06-17T09:36:46.506Z,22.91
2018-06-17T09:37:46.701Z,22.98
2018-06-17T09:38:46.906Z,22.92
2018-06-17T09:39:47.133Z,23.19
2018-06-17T09:40:47.355Z,23.01
2018-06-17T09:41:47.569Z,22.92
2018-06-17T09:42:47.799Z,22.91
2018-06-17T09:43:47.987Z,22.70
2018-06-17T09:44:48.199Z,22.85
2018-06-17T09:45:48.405Z,22.92
2018-06-17T09:46:48.600Z,22.79
2018-06-17T09:47:48.795Z,23.17
2018-06-17T09:48:49.009Z,23.47
2018-06-17T09:49:49.204Z,23.51
2018-06-17T09:50:49.396Z,24.81
2018-06-17T09:51:49.614Z,25.80
2018-06-17T09:52:49.834Z,26.26
2018-06-17T09:53:50.059Z,26.75
2018-06-17T09:54:50.253Z,26.62
2018-06-17T09:55:50.467Z,26.26
2018-06-17T09:56:50.668Z,26.17
2018-06-17T09:57:50.864Z,25.88
2018-06-17T09:58:51.061Z,25.65
2018-06-17T09:59:51.277Z,25.47
2018-06-17T10:00:51.505Z,25.38
2018-06-17T10:01:51.834Z,25.28
2018-06-17T10:02:51.945Z,24.61
2018-06-17T10:03:52.147Z,24.67
2018-06-17T10:04:52.344Z,24.76
2018-06-17T10:05:52.593Z,24.83
2018-06-17T10:06:52.805Z,24.78
2018-06-17T10:09:24.920Z,25.87
2018-06-17T10:10:25.105Z,26.37
2018-06-17T10:11:25.307Z,25.97
2018-06-17T10:12:25.517Z,25.33
2018-06-17T10:13:25.737Z,25.18
2018-06-17T10:14:25.960Z,25.18
2018-06-17T10:15:26.189Z,24.73
2018-06-17T10:16:26.384Z,24.50
2018-06-17T10:17:26.608Z,24.08
2018-06-17T10:18:26.829Z,24.08
2018-06-17T10:19:27.039Z,24.18
2018-06-17T10:20:27.232Z,24.03
2018-06-17T10:21:27.434Z,23.91
2018-06-17T10:22:27.626Z,24.08
2018-06-17T10:23:27.979Z,24.00
2018-06-17T10:24:28.056Z,23.79
2018-06-17T10:25:28.256Z,24.09
2018-06-17T10:26:28.458Z,23.91
2018-06-17T10:27:28.670Z,23.63
2018-06-17T10:28:28.889Z,23.79
2018-06-17T10:29:29.119Z,23.61
2018-06-17T10:30:29.295Z,23.76
2018-06-17T10:31:29.500Z,23.84
2018-06-17T10:32:29.717Z,24.10
2018-06-17T10:33:29.905Z,24.32
2018-06-17T10:34:30.241Z,24.22
2018-06-17T10:35:30.333Z,24.16
2018-06-17T10:36:30.543Z,23.87
2018-06-17T10:37:30.771Z,23.60
2018-06-17T10:38:30.961Z,23.79
2018-06-17T10:39:31.181Z,23.48
2018-06-17T10:40:31.388Z,23.48
2018-06-17T10:41:31.586Z,23.40
2018-06-17T10:42:31.803Z,23.48
2018-06-17T10:43:32.064Z,23.63
2018-06-17T10:44:32.207Z,23.35
2018-06-17T10:45:32.471Z,23.05
2018-06-17T10:46:32.560Z,23.01
2018-06-17T10:47:32.778Z,23.13
2018-06-17T10:48:32.964Z,23.10
2018-06-17T10:49:33.167Z,23.04
2018-06-17T10:50:33.463Z,22.82
2018-06-17T10:51:33.627Z,22.82
2018-06-17T10:52:33.798Z,22.72
2018-06-17T10:53:34.011Z,22.62
2018-06-17T10:54:34.213Z,22.60
2018-06-17T10:55:34.497Z,22.51
2018-06-17T10:56:34.644Z,22.55
2018-06-17T10:57:34.857Z,22.60
2018-06-17T10:58:35.076Z,22.52
2018-06-17T10:59:35.288Z,22.57
2018-06-17T11:00:35.524Z,22.62
2018-06-17T11:01:35.727Z,22.77
2018-06-17T11:02:35.916Z,22.95
2018-06-17T11:03:36.130Z,23.25
2018-06-17T11:04:36.369Z,23.48
2018-06-17T11:05:36.647Z,23.73
2018-06-17T11:06:36.767Z,23.79
2018-06-17T11:07:36.973Z,23.95
2018-06-17T11:08:37.194Z,24.30
2018-06-17T11:09:37.411Z,24.06
2018-06-17T11:10:37.602Z,24.27
2018-06-17T11:11:37.802Z,24.18
2018-06-17T11:12:38.009Z,24.50
2018-06-17T11:13:38.207Z,24.10
2018-06-17T11:14:38.416Z,24.12
2018-06-17T11:15:38.641Z,24.13
2018-06-17T11:16:38.837Z,24.31
2018-06-17T11:17:39.051Z,23.87
2018-06-17T11:18:39.261Z,23.83
2018-06-17T11:19:39.516Z,23.90
2018-06-17T11:20:39.676Z,24.10
2018-06-17T11:21:39.877Z,24.30
2018-06-17T11:22:40.093Z,24.43
2018-06-17T11:23:40.297Z,24.71
2018-06-17T11:24:40.524Z,24.52
2018-06-17T11:25:40.729Z,24.00
2018-06-17T11:26:40.959Z,24.16
2018-06-17T11:27:41.133Z,24.05
2018-06-17T11:28:41.334Z,24.00
2018-06-17T11:29:41.529Z,23.68
2018-06-17T11:30:41.726Z,23.75
2018-06-17T11:31:41.938Z,24.18
2018-06-17T11:32:42.173Z,24.31
2018-06-17T11:33:42.373Z,24.37
2018-06-17T11:34:42.566Z,24.18
2018-06-17T11:35:42.749Z,24.30
2018-06-17T11:36:42.945Z,24.58
2018-06-17T11:37:43.162Z,24.83
2018-06-17T11:38:43.354Z,24.73
2018-06-17T11:39:43.612Z,25.32
2018-06-17T11:40:43.769Z,25.02
2018-06-17T11:41:43.970Z,24.31
2018-06-17T11:42:44.186Z,24.16
2018-06-17T11:43:44.389Z,24.35
2018-06-17T11:44:44.658Z,24.77
2018-06-17T11:45:44.836Z,24.73
2018-06-17T11:46:45.032Z,24.71
2018-06-17T11:49:16.881Z,25.03
2018-06-17T11:50:17.063Z,24.69
2018-06-17T11:52:49.452Z,24.28
2018-06-17T11:53:49.590Z,24.00
2018-06-17T11:54:49.806Z,24.12
2018-06-17T11:55:50.008Z,23.88
2018-06-17T11:56:50.252Z,24.08
2018-06-17T11:57:50.470Z,24.16
2018-06-17T11:58:50.669Z,24.20
2018-06-17T12:01:22.787Z,24.18
2018-06-17T12:02:22.967Z,24.27
2018-06-17T12:03:23.169Z,24.12
2018-06-17T12:04:23.367Z,23.80
2018-06-17T12:05:23.578Z,24.06
2018-06-17T12:06:23.773Z,24.00
2018-06-17T12:07:23.980Z,23.98
2018-06-17T12:08:24.201Z,23.93
2018-06-17T12:09:24.403Z,23.70
2018-06-17T12:10:24.600Z,23.85
2018-06-17T12:11:24.810Z,24.03
2018-06-17T12:12:25.011Z,24.05
2018-06-17T12:13:25.213Z,23.95
2018-06-17T12:14:25.436Z,23.76
2018-06-17T12:15:25.627Z,23.84
2018-06-17T12:16:25.852Z,24.22
2018-06-17T12:17:26.059Z,24.32
2018-06-17T12:18:26.259Z,24.28
2018-06-17T12:19:26.481Z,24.08
2018-06-17T12:20:26.697Z,24.03
2018-06-17T12:21:26.888Z,23.84
2018-06-17T12:22:27.086Z,24.05
2018-06-17T12:23:27.295Z,24.10
2018-06-17T12:24:27.486Z,24.42
2018-06-17T12:25:27.778Z,24.62
2018-06-17T12:26:27.905Z,24.88
2018-06-17T12:27:28.109Z,24.67
2018-06-17T12:28:28.316Z,24.52
2018-06-17T12:29:28.526Z,24.68
2018-06-17T12:30:28.739Z,25.06
2018-06-17T12:31:28.971Z,24.80
2018-06-17T12:32:29.179Z,25.47
2018-06-17T12:33:29.430Z,25.62
2018-06-17T12:34:29.596Z,25.90
2018-06-17T12:35:29.803Z,25.82
2018-06-17T12:36:30.114Z,25.51
2018-06-17T12:37:30.233Z,25.65
2018-06-17T12:38:30.460Z,25.60
2018-06-17T12:39:30.668Z,25.20
2018-06-17T12:40:30.861Z,25.55
2018-06-17T12:41:31.094Z,25.75
2018-06-17T12:42:31.302Z,25.77
2018-06-17T12:43:31.498Z,25.82
2018-06-17T12:44:31.713Z,25.65
2018-06-17T12:45:31.947Z,25.95
2018-06-17T12:46:32.154Z,25.92
2018-06-17T12:47:32.358Z,25.70
2018-06-17T12:48:32.581Z,25.02
2018-06-17T12:49:32.801Z,24.24
2018-06-17T12:50:33.031Z,23.95
2018-06-17T12:51:33.212Z,23.93
2018-06-17T12:52:33.423Z,23.97
2018-06-17T12:53:33.638Z,23.91
2018-06-17T12:54:33.839Z,23.79
2018-06-17T12:55:34.121Z,23.91
2018-06-17T12:56:34.204Z,23.93
2018-06-17T12:57:34.402Z,23.93
2018-06-17T12:58:34.608Z,23.93
2018-06-17T12:59:34.834Z,23.98
2018-06-17T13:00:35.061Z,24.06
2018-06-17T13:01:35.257Z,24.16
2018-06-17T13:02:35.452Z,24.30
2018-06-17T13:03:35.668Z,24.49
2018-06-17T13:04:35.941Z,24.77
2018-06-17T13:05:36.094Z,25.06
2018-06-17T13:06:36.294Z,25.17
2018-06-17T13:07:36.496Z,24.93
2018-06-17T13:08:36.710Z,24.49
2018-06-17T13:09:36.913Z,24.87
2018-06-17T13:10:37.116Z,24.84
2018-06-17T13:13:09.414Z,24.78